sensor_id;sensor_type;location;lat;lon;timestamp;temperature;humidity
52415;DHT22;38340;52.964;6.086;2022-09-03T00:00:20;16.90;99.90
52415;DHT22;38340;52.964;6.086;2022-09-03T00:05:39;16.80;99.90
52415;DHT22;38340;52.964;6.086;2022-09-03T00:10:58;16.70;99.90
52415;DHT22;38340;52.964;6.086;2022-09-03T00:13:36;16.60;99.90
52415;DHT22;38340;52.964;6.086;2022-09-03T00:16:08;16.60;99.90
52415;DHT22;38340;52.964;6.086;2022-09-03T00:18:42;16.50;99.90
52415;DHT22;38340;52.964;6.086;2022-09-03T00:21:15;16.50;99.90
52415;DHT22;38340;52.964;6.086;2022-09-03T00:23:43;16.50;99.90
52415;DHT22;38340;52.964;6.086;2022-09-03T00:33:56;16.30;99.90
52415;DHT22;38340;52.964;6.086;2022-09-03T00:36:30;16.30;99.90
52415;DHT22;38340;52.964;6.086;2022-09-03T00:38:58;16.20;99.90
52415;DHT22;38340;52.964;6.086;2022-09-03T00:44:47;16.20;99.90
52415;DHT22;38340;52.964;6.086;2022-09-03T00:47:32;16.20;99.90
52415;DHT22;38340;52.964;6.086;2022-09-03T00:56:04;16.10;99.90
52415;DHT22;38340;52.964;6.086;2022-09-03T01:04:23;16.00;99.90
52415;DHT22;38340;52.964;6.086;2022-09-03T01:10:00;16.00;99.90
52415;DHT22;38340;52.964;6.086;2022-09-03T01:15:19;16.00;99.90
52415;DHT22;38340;52.964;6.086;2022-09-03T01:28:42;16.10;99.90
52415;DHT22;38340;52.964;6.086;2022-09-03T01:36:51;16.10;99.90
52415;DHT22;38340;52.964;6.086;2022-09-03T01:45:23;16.10;99.90
52415;DHT22;38340;52.964;6.086;2022-09-03T01:50:37;16.10;99.90
52415;DHT22;38340;52.964;6.086;2022-09-03T01:53:12;16.10;99.90
52415;DHT22;38340;52.964;6.086;2022-09-03T01:55:50;16.10;99.90
52415;DHT22;38340;52.964;6.086;2022-09-03T01:58:30;16.20;99.90
52415;DHT22;38340;52.964;6.086;2022-09-03T02:01:08;16.10;99.90
52415;DHT22;38340;52.964;6.086;2022-09-03T02:03:40;16.20;99.90
52415;DHT22;38340;52.964;6.086;2022-09-03T02:06:08;16.20;99.90
52415;DHT22;38340;52.964;6.086;2022-09-03T02:08:35;16.20;99.90
52415;DHT22;38340;52.964;6.086;2022-09-03T02:11:00;16.20;99.90
52415;DHT22;38340;52.964;6.086;2022-09-03T02:13:46;16.20;99.90
52415;DHT22;38340;52.964;6.086;2022-09-03T02:16:18;16.20;99.90
52415;DHT22;38340;52.964;6.086;2022-09-03T02:18:49;16.20;99.90
52415;DHT22;38340;52.964;6.086;2022-09-03T02:21:17;16.20;99.90
52415;DHT22;38340;52.964;6.086;2022-09-03T02:23:45;16.20;99.90
52415;DHT22;38340;52.964;6.086;2022-09-03T02:26:12;16.20;99.90
52415;DHT22;38340;52.964;6.086;2022-09-03T02:28:40;16.20;99.90
52415;DHT22;38340;52.964;6.086;2022-09-03T02:31:05;16.20;99.90
52415;DHT22;38340;52.964;6.086;2022-09-03T02:33:38;16.20;99.90
52415;DHT22;38340;52.964;6.086;2022-09-03T02:36:09;16.20;99.90
52415;DHT22;38340;52.964;6.086;2022-09-03T02:38:35;16.20;99.90
52415;DHT22;38340;52.964;6.086;2022-09-03T02:41:00;16.20;99.90
52415;DHT22;38340;52.964;6.086;2022-09-03T02:43:40;16.20;99.90
52415;DHT22;38340;52.964;6.086;2022-09-03T02:46:14;16.20;99.90
52415;DHT22;38340;52.964;6.086;2022-09-03T02:48:41;16.20;99.90
52415;DHT22;38340;52.964;6.086;2022-09-03T02:51:07;16.20;99.90
52415;DHT22;38340;52.964;6.086;2022-09-03T02:53:32;16.10;99.90
52415;DHT22;38340;52.964;6.086;2022-09-03T02:55:59;16.10;99.90
52415;DHT22;38340;52.964;6.086;2022-09-03T02:58:25;16.20;99.90
52415;DHT22;38340;52.964;6.086;2022-09-03T03:00:51;16.20;99.90
52415;DHT22;38340;52.964;6.086;2022-09-03T03:03:17;16.20;99.90
52415;DHT22;38340;52.964;6.086;2022-09-03T03:05:49;16.10;99.90
52415;DHT22;38340;52.964;6.086;2022-09-03T03:08:16;16.20;99.90
52415;DHT22;38340;52.964;6.086;2022-09-03T03:10:46;16.10;99.90
52415;DHT22;38340;52.964;6.086;2022-09-03T03:13:14;16.20;99.90
52415;DHT22;38340;52.964;6.086;2022-09-03T03:15:41;16.10;99.90
52415;DHT22;38340;52.964;6.086;2022-09-03T03:18:07;16.20;99.90
52415;DHT22;38340;52.964;6.086;2022-09-03T03:20:36;16.10;99.90
52415;DHT22;38340;52.964;6.086;2022-09-03T03:23:03;16.10;99.90
52415;DHT22;38340;52.964;6.086;2022-09-03T03:25:34;16.10;99.90
52415;DHT22;38340;52.964;6.086;2022-09-03T03:28:00;16.10;99.90
52415;DHT22;38340;52.964;6.086;2022-09-03T03:30:26;16.10;99.90
52415;DHT22;38340;52.964;6.086;2022-09-03T03:32:53;16.10;99.90
52415;DHT22;38340;52.964;6.086;2022-09-03T03:35:19;16.10;99.90
52415;DHT22;38340;52.964;6.086;2022-09-03T03:37:44;16.10;99.90
52415;DHT22;38340;52.964;6.086;2022-09-03T03:40:11;16.10;99.90
52415;DHT22;38340;52.964;6.086;2022-09-03T03:42:37;16.10;99.90
52415;DHT22;38340;52.964;6.086;2022-09-03T03:45:04;16.10;99.90
52415;DHT22;38340;52.964;6.086;2022-09-03T03:47:29;16.10;99.90
52415;DHT22;38340;52.964;6.086;2022-09-03T03:49:56;16.10;99.90
52415;DHT22;38340;52.964;6.086;2022-09-03T03:52:23;16.10;99.90
52415;DHT22;38340;52.964;6.086;2022-09-03T03:54:49;16.10;99.90
52415;DHT22;38340;52.964;6.086;2022-09-03T03:57:16;16.10;99.90
52415;DHT22;38340;52.964;6.086;2022-09-03T03:59:44;16.00;99.90
52415;DHT22;38340;52.964;6.086;2022-09-03T04:02:09;16.00;99.90
52415;DHT22;38340;52.964;6.086;2022-09-03T04:04:35;16.00;99.90
52415;DHT22;38340;52.964;6.086;2022-09-03T04:07:01;16.00;99.90
52415;DHT22;38340;52.964;6.086;2022-09-03T04:09:27;16.00;99.90
52415;DHT22;38340;52.964;6.086;2022-09-03T04:11:52;16.00;99.90
52415;DHT22;38340;52.964;6.086;2022-09-03T04:14:18;16.00;99.90
52415;DHT22;38340;52.964;6.086;2022-09-03T04:16:43;16.00;99.90
52415;DHT22;38340;52.964;6.086;2022-09-03T04:19:11;16.00;99.90
52415;DHT22;38340;52.964;6.086;2022-09-03T04:21:38;16.00;99.90
52415;DHT22;38340;52.964;6.086;2022-09-03T04:24:05;16.00;99.90
52415;DHT22;38340;52.964;6.086;2022-09-03T04:26:32;15.90;99.90
52415;DHT22;38340;52.964;6.086;2022-09-03T04:29:04;15.90;99.90
52415;DHT22;38340;52.964;6.086;2022-09-03T04:31:31;15.90;99.90
52415;DHT22;38340;52.964;6.086;2022-09-03T04:33:57;15.80;99.90
52415;DHT22;38340;52.964;6.086;2022-09-03T04:36:25;15.80;99.90
52415;DHT22;38340;52.964;6.086;2022-09-03T04:38:53;15.70;99.90
52415;DHT22;38340;52.964;6.086;2022-09-03T04:41:24;15.70;99.90
52415;DHT22;38340;52.964;6.086;2022-09-03T04:43:54;15.60;99.90
52415;DHT22;38340;52.964;6.086;2022-09-03T04:46:22;15.60;99.90
52415;DHT22;38340;52.964;6.086;2022-09-03T04:48:51;15.50;99.90
52415;DHT22;38340;52.964;6.086;2022-09-03T04:51:22;15.50;99.90
52415;DHT22;38340;52.964;6.086;2022-09-03T04:53:54;15.50;99.90
52415;DHT22;38340;52.964;6.086;2022-09-03T04:56:23;15.50;99.90
52415;DHT22;38340;52.964;6.086;2022-09-03T04:58:57;15.40;99.90
52415;DHT22;38340;52.964;6.086;2022-09-03T05:01:25;15.40;99.90
52415;DHT22;38340;52.964;6.086;2022-09-03T05:03:51;15.40;99.90
52415;DHT22;38340;52.964;6.086;2022-09-03T05:06:17;15.30;99.90
52415;DHT22;38340;52.964;6.086;2022-09-03T05:08:49;15.30;99.90
52415;DHT22;38340;52.964;6.086;2022-09-03T05:11:16;15.30;99.90
52415;DHT22;38340;52.964;6.086;2022-09-03T05:13:42;15.30;99.90
52415;DHT22;38340;52.964;6.086;2022-09-03T05:16:10;15.30;99.90
52415;DHT22;38340;52.964;6.086;2022-09-03T05:18:36;15.30;99.90
52415;DHT22;38340;52.964;6.086;2022-09-03T05:21:10;15.30;99.90
52415;DHT22;38340;52.964;6.086;2022-09-03T05:23:41;15.30;99.90
52415;DHT22;38340;52.964;6.086;2022-09-03T05:26:10;15.30;99.90
52415;DHT22;38340;52.964;6.086;2022-09-03T05:28:38;15.30;99.90
52415;DHT22;38340;52.964;6.086;2022-09-03T05:31:18;15.30;99.90
52415;DHT22;38340;52.964;6.086;2022-09-03T05:33:50;15.30;99.90
52415;DHT22;38340;52.964;6.086;2022-09-03T05:36:18;15.30;99.90
52415;DHT22;38340;52.964;6.086;2022-09-03T05:38:44;15.30;99.90
52415;DHT22;38340;52.964;6.086;2022-09-03T05:41:11;15.30;99.90
52415;DHT22;38340;52.964;6.086;2022-09-03T05:43:38;15.30;99.90
52415;DHT22;38340;52.964;6.086;2022-09-03T05:48:32;15.40;99.90
52415;DHT22;38340;52.964;6.086;2022-09-03T05:50:59;15.40;99.90
52415;DHT22;38340;52.964;6.086;2022-09-03T05:53:26;15.40;99.90
52415;DHT22;38340;52.964;6.086;2022-09-03T05:55:57;15.50;99.90
52415;DHT22;38340;52.964;6.086;2022-09-03T05:58:23;15.60;99.90
52415;DHT22;38340;52.964;6.086;2022-09-03T06:00:50;15.60;99.90
52415;DHT22;38340;52.964;6.086;2022-09-03T06:03:16;15.70;99.90
52415;DHT22;38340;52.964;6.086;2022-09-03T06:05:54;15.80;99.90
52415;DHT22;38340;52.964;6.086;2022-09-03T06:08:20;15.80;99.90
52415;DHT22;38340;52.964;6.086;2022-09-03T06:10:46;15.80;99.90
52415;DHT22;38340;52.964;6.086;2022-09-03T06:13:12;15.70;99.90
52415;DHT22;38340;52.964;6.086;2022-09-03T06:15:38;15.70;99.90
52415;DHT22;38340;52.964;6.086;2022-09-03T06:18:04;15.70;99.90
52415;DHT22;38340;52.964;6.086;2022-09-03T06:20:30;15.70;99.90
52415;DHT22;38340;52.964;6.086;2022-09-03T06:22:57;15.70;99.90
52415;DHT22;38340;52.964;6.086;2022-09-03T06:25:23;15.70;99.90
52415;DHT22;38340;52.964;6.086;2022-09-03T06:27:49;15.70;99.90
52415;DHT22;38340;52.964;6.086;2022-09-03T06:30:15;15.70;99.90
52415;DHT22;38340;52.964;6.086;2022-09-03T06:32:48;15.80;99.90
52415;DHT22;38340;52.964;6.086;2022-09-03T06:35:18;15.90;99.90
52415;DHT22;38340;52.964;6.086;2022-09-03T06:37:44;16.00;99.90
52415;DHT22;38340;52.964;6.086;2022-09-03T06:40:10;16.10;99.90
52415;DHT22;38340;52.964;6.086;2022-09-03T06:42:57;16.20;99.90
52415;DHT22;38340;52.964;6.086;2022-09-03T06:45:28;16.30;99.90
52415;DHT22;38340;52.964;6.086;2022-09-03T06:47:54;16.40;99.90
52415;DHT22;38340;52.964;6.086;2022-09-03T06:50:20;16.50;99.90
52415;DHT22;38340;52.964;6.086;2022-09-03T06:52:53;16.50;99.90
52415;DHT22;38340;52.964;6.086;2022-09-03T06:55:20;16.60;99.90
52415;DHT22;38340;52.964;6.086;2022-09-03T06:57:47;16.70;99.90
52415;DHT22;38340;52.964;6.086;2022-09-03T07:00:14;16.80;99.90
52415;DHT22;38340;52.964;6.086;2022-09-03T07:02:40;16.90;99.90
52415;DHT22;38340;52.964;6.086;2022-09-03T07:05:07;17.00;99.90
52415;DHT22;38340;52.964;6.086;2022-09-03T07:07:33;17.10;99.90
52415;DHT22;38340;52.964;6.086;2022-09-03T07:09:59;17.20;99.90
52415;DHT22;38340;52.964;6.086;2022-09-03T07:12:26;17.30;99.90
52415;DHT22;38340;52.964;6.086;2022-09-03T07:14:52;17.50;99.90
52415;DHT22;38340;52.964;6.086;2022-09-03T07:17:17;17.60;99.90
52415;DHT22;38340;52.964;6.086;2022-09-03T07:19:43;17.70;99.90
52415;DHT22;38340;52.964;6.086;2022-09-03T07:22:08;17.80;99.90
52415;DHT22;38340;52.964;6.086;2022-09-03T07:24:34;17.90;99.90
52415;DHT22;38340;52.964;6.086;2022-09-03T07:27:02;18.00;99.90
52415;DHT22;38340;52.964;6.086;2022-09-03T07:29:29;18.10;99.90
52415;DHT22;38340;52.964;6.086;2022-09-03T07:31:54;18.20;99.90
52415;DHT22;38340;52.964;6.086;2022-09-03T07:34:21;18.30;99.90
52415;DHT22;38340;52.964;6.086;2022-09-03T07:36:48;18.40;99.90
52415;DHT22;38340;52.964;6.086;2022-09-03T07:39:15;18.50;99.90
52415;DHT22;38340;52.964;6.086;2022-09-03T07:41:42;18.60;99.90
52415;DHT22;38340;52.964;6.086;2022-09-03T07:44:12;18.70;99.90
52415;DHT22;38340;52.964;6.086;2022-09-03T07:46:39;18.80;99.90
52415;DHT22;38340;52.964;6.086;2022-09-03T07:49:05;18.90;99.90
52415;DHT22;38340;52.964;6.086;2022-09-03T07:51:36;18.90;99.90
52415;DHT22;38340;52.964;6.086;2022-09-03T07:54:04;19.00;99.90
52415;DHT22;38340;52.964;6.086;2022-09-03T07:56:31;19.20;99.90
52415;DHT22;38340;52.964;6.086;2022-09-03T07:59:00;19.30;99.90
52415;DHT22;38340;52.964;6.086;2022-09-03T08:01:27;19.50;99.90
52415;DHT22;38340;52.964;6.086;2022-09-03T08:03:54;19.70;99.90
52415;DHT22;38340;52.964;6.086;2022-09-03T08:06:23;19.80;99.90
52415;DHT22;38340;52.964;6.086;2022-09-03T08:08:54;19.80;99.90
52415;DHT22;38340;52.964;6.086;2022-09-03T08:11:21;19.90;99.90
52415;DHT22;38340;52.964;6.086;2022-09-03T08:13:56;20.00;99.90
52415;DHT22;38340;52.964;6.086;2022-09-03T08:16:26;20.20;99.90
52415;DHT22;38340;52.964;6.086;2022-09-03T08:18:52;20.20;99.90
52415;DHT22;38340;52.964;6.086;2022-09-03T08:21:18;20.30;99.90
52415;DHT22;38340;52.964;6.086;2022-09-03T08:23:50;20.40;99.90
52415;DHT22;38340;52.964;6.086;2022-09-03T08:26:17;20.50;99.90
52415;DHT22;38340;52.964;6.086;2022-09-03T08:28:43;20.70;99.90
52415;DHT22;38340;52.964;6.086;2022-09-03T08:31:15;20.80;99.90
52415;DHT22;38340;52.964;6.086;2022-09-03T08:33:43;20.90;99.90
52415;DHT22;38340;52.964;6.086;2022-09-03T08:36:12;21.00;99.90
52415;DHT22;38340;52.964;6.086;2022-09-03T08:38:39;21.10;99.90
52415;DHT22;38340;52.964;6.086;2022-09-03T08:47:11;21.10;99.90
52415;DHT22;38340;52.964;6.086;2022-09-03T08:49:53;21.20;99.90
52415;DHT22;38340;52.964;6.086;2022-09-03T08:55:28;21.30;99.90
52415;DHT22;38340;52.964;6.086;2022-09-03T08:58:08;21.50;99.90
52415;DHT22;38340;52.964;6.086;2022-09-03T09:06:50;21.80;99.90
52415;DHT22;38340;52.964;6.086;2022-09-03T09:14:55;22.20;99.90
52415;DHT22;38340;52.964;6.086;2022-09-03T09:20:38;22.40;99.90
52415;DHT22;38340;52.964;6.086;2022-09-03T09:23:26;22.50;99.90
52415;DHT22;38340;52.964;6.086;2022-09-03T09:25:56;22.70;99.90
52415;DHT22;38340;52.964;6.086;2022-09-03T09:28:37;22.70;99.60
52415;DHT22;38340;52.964;6.086;2022-09-03T09:31:05;22.60;99.70
52415;DHT22;38340;52.964;6.086;2022-09-03T09:33:37;22.70;99.70
52415;DHT22;38340;52.964;6.086;2022-09-03T09:36:07;22.70;99.90
52415;DHT22;38340;52.964;6.086;2022-09-03T09:38:35;22.80;99.90
52415;DHT22;38340;52.964;6.086;2022-09-03T09:41:16;22.90;99.90
52415;DHT22;38340;52.964;6.086;2022-09-03T09:43:44;23.00;99.50
52415;DHT22;38340;52.964;6.086;2022-09-03T09:46:25;23.00;99.50
52415;DHT22;38340;52.964;6.086;2022-09-03T09:48:54;23.10;99.70
52415;DHT22;38340;52.964;6.086;2022-09-03T09:51:22;23.20;99.60
52415;DHT22;38340;52.964;6.086;2022-09-03T09:56:25;23.30;99.60
52415;DHT22;38340;52.964;6.086;2022-09-03T09:59:05;23.40;99.50
52415;DHT22;38340;52.964;6.086;2022-09-03T10:01:32;23.50;99.40
52415;DHT22;38340;52.964;6.086;2022-09-03T10:04:07;23.50;99.30
52415;DHT22;38340;52.964;6.086;2022-09-03T10:06:33;23.60;99.10
52415;DHT22;38340;52.964;6.086;2022-09-03T10:09:20;23.60;99.00
52415;DHT22;38340;52.964;6.086;2022-09-03T10:12:23;23.70;99.10
52415;DHT22;38340;52.964;6.086;2022-09-03T10:17:48;23.80;99.00
52415;DHT22;38340;52.964;6.086;2022-09-03T10:23:15;23.90;99.10
52415;DHT22;38340;52.964;6.086;2022-09-03T10:28:21;24.00;99.00
52415;DHT22;38340;52.964;6.086;2022-09-03T10:31:12;24.10;99.00
52415;DHT22;38340;52.964;6.086;2022-09-03T10:33:48;24.20;99.10
52415;DHT22;38340;52.964;6.086;2022-09-03T10:36:18;24.20;98.00
52415;DHT22;38340;52.964;6.086;2022-09-03T10:38:52;24.10;98.20
52415;DHT22;38340;52.964;6.086;2022-09-03T10:47:09;24.30;98.00
52415;DHT22;38340;52.964;6.086;2022-09-03T10:50:37;24.40;97.80
52415;DHT22;38340;52.964;6.086;2022-09-03T11:06:53;24.50;97.30
52415;DHT22;38340;52.964;6.086;2022-09-03T11:09:25;24.50;97.40
52415;DHT22;38340;52.964;6.086;2022-09-03T11:12:05;24.60;97.40
52415;DHT22;38340;52.964;6.086;2022-09-03T11:14:45;24.70;97.40
52415;DHT22;38340;52.964;6.086;2022-09-03T11:17:27;24.80;97.20
52415;DHT22;38340;52.964;6.086;2022-09-03T11:20:05;24.80;96.30
52415;DHT22;38340;52.964;6.086;2022-09-03T11:22:35;24.80;96.50
52415;DHT22;38340;52.964;6.086;2022-09-03T11:25:02;24.80;96.00
52415;DHT22;38340;52.964;6.086;2022-09-03T11:38:05;25.00;95.90
52415;DHT22;38340;52.964;6.086;2022-09-03T11:40:37;25.10;96.00
52415;DHT22;38340;52.964;6.086;2022-09-03T11:45:48;25.20;95.40
52415;DHT22;38340;52.964;6.086;2022-09-03T11:48:41;25.20;95.50
52415;DHT22;38340;52.964;6.086;2022-09-03T11:56:27;25.20;94.60
52415;DHT22;38340;52.964;6.086;2022-09-03T11:59:04;25.20;94.40
52415;DHT22;38340;52.964;6.086;2022-09-03T12:01:33;25.20;94.20
52415;DHT22;38340;52.964;6.086;2022-09-03T12:04:05;25.20;94.30
52415;DHT22;38340;52.964;6.086;2022-09-03T12:12:03;25.20;94.60
52415;DHT22;38340;52.964;6.086;2022-09-03T12:17:51;25.40;95.00
52415;DHT22;38340;52.964;6.086;2022-09-03T12:20:38;25.50;95.20
52415;DHT22;38340;52.964;6.086;2022-09-03T12:23:04;25.60;94.80
52415;DHT22;38340;52.964;6.086;2022-09-03T12:25:31;25.70;94.40
52415;DHT22;38340;52.964;6.086;2022-09-03T12:27:58;25.70;94.40
52415;DHT22;38340;52.964;6.086;2022-09-03T12:30:25;25.70;94.30
52415;DHT22;38340;52.964;6.086;2022-09-03T12:33:21;25.70;94.20
52415;DHT22;38340;52.964;6.086;2022-09-03T12:36:07;25.70;93.90
52415;DHT22;38340;52.964;6.086;2022-09-03T12:38:34;25.70;94.40
52415;DHT22;38340;52.964;6.086;2022-09-03T12:41:00;25.70;94.10
52415;DHT22;38340;52.964;6.086;2022-09-03T12:43:28;25.70;94.30
52415;DHT22;38340;52.964;6.086;2022-09-03T12:45:54;25.70;94.10
52415;DHT22;38340;52.964;6.086;2022-09-03T12:48:20;25.70;94.20
52415;DHT22;38340;52.964;6.086;2022-09-03T12:50:48;25.60;93.90
52415;DHT22;38340;52.964;6.086;2022-09-03T12:53:24;25.60;94.10
52415;DHT22;38340;52.964;6.086;2022-09-03T12:55:58;25.70;94.00
52415;DHT22;38340;52.964;6.086;2022-09-03T12:58:29;25.70;94.20
52415;DHT22;38340;52.964;6.086;2022-09-03T13:01:02;25.70;94.10
52415;DHT22;38340;52.964;6.086;2022-09-03T13:03:33;25.80;93.90
52415;DHT22;38340;52.964;6.086;2022-09-03T13:06:09;25.80;94.00
52415;DHT22;38340;52.964;6.086;2022-09-03T13:08:56;25.80;93.70
52415;DHT22;38340;52.964;6.086;2022-09-03T13:11:25;25.90;93.90
52415;DHT22;38340;52.964;6.086;2022-09-03T13:27:22;26.10;93.80
52415;DHT22;38340;52.964;6.086;2022-09-03T13:30:12;26.10;93.60
52415;DHT22;38340;52.964;6.086;2022-09-03T13:32:53;26.10;93.80
52415;DHT22;38340;52.964;6.086;2022-09-03T13:38:36;26.00;93.30
52415;DHT22;38340;52.964;6.086;2022-09-03T13:41:13;25.90;93.20
52415;DHT22;38340;52.964;6.086;2022-09-03T13:43:56;25.90;93.30
52415;DHT22;38340;52.964;6.086;2022-09-03T13:46:51;25.80;93.10
52415;DHT22;38340;52.964;6.086;2022-09-03T13:55:01;25.80;93.00
52415;DHT22;38340;52.964;6.086;2022-09-03T13:57:53;25.80;93.20
52415;DHT22;38340;52.964;6.086;2022-09-03T14:00:25;25.80;93.10
52415;DHT22;38340;52.964;6.086;2022-09-03T14:09:08;25.90;93.30
52415;DHT22;38340;52.964;6.086;2022-09-03T14:25:55;26.00;93.20
52415;DHT22;38340;52.964;6.086;2022-09-03T14:28:27;25.90;93.10
52415;DHT22;38340;52.964;6.086;2022-09-03T14:53:20;25.80;93.30
52415;DHT22;38340;52.964;6.086;2022-09-03T14:56:12;25.90;93.60
52415;DHT22;38340;52.964;6.086;2022-09-03T15:01:33;25.80;93.20
52415;DHT22;38340;52.964;6.086;2022-09-03T15:06:46;25.80;92.40
52415;DHT22;38340;52.964;6.086;2022-09-03T15:12:28;26.00;93.00
52415;DHT22;38340;52.964;6.086;2022-09-03T15:14:57;26.00;93.00
52415;DHT22;38340;52.964;6.086;2022-09-03T15:26:16;26.00;93.00
52415;DHT22;38340;52.964;6.086;2022-09-03T15:31:35;26.00;93.00
52415;DHT22;38340;52.964;6.086;2022-09-03T15:36:51;26.00;93.30
52415;DHT22;38340;52.964;6.086;2022-09-03T15:39:30;26.00;93.40
52415;DHT22;38340;52.964;6.086;2022-09-03T15:41:59;26.00;93.20
52415;DHT22;38340;52.964;6.086;2022-09-03T15:44:47;26.00;93.30
52415;DHT22;38340;52.964;6.086;2022-09-03T15:53:05;26.00;92.70
52415;DHT22;38340;52.964;6.086;2022-09-03T15:55:41;25.90;92.80
52415;DHT22;38340;52.964;6.086;2022-09-03T15:58:19;25.80;93.10
52415;DHT22;38340;52.964;6.086;2022-09-03T16:03:20;25.70;93.00
52415;DHT22;38340;52.964;6.086;2022-09-03T16:06:27;25.70;92.80
52415;DHT22;38340;52.964;6.086;2022-09-03T16:09:07;25.70;93.20
52415;DHT22;38340;52.964;6.086;2022-09-03T16:12:07;25.60;93.30
52415;DHT22;38340;52.964;6.086;2022-09-03T16:14:39;25.60;93.30
52415;DHT22;38340;52.964;6.086;2022-09-03T16:17:10;25.60;93.00
52415;DHT22;38340;52.964;6.086;2022-09-03T16:20:03;25.50;93.10
52415;DHT22;38340;52.964;6.086;2022-09-03T16:22:43;25.40;92.90
52415;DHT22;38340;52.964;6.086;2022-09-03T16:25:45;25.40;93.20
52415;DHT22;38340;52.964;6.086;2022-09-03T16:28:17;25.30;93.30
52415;DHT22;38340;52.964;6.086;2022-09-03T16:34:01;25.20;93.50
52415;DHT22;38340;52.964;6.086;2022-09-03T16:44:58;24.90;93.50
52415;DHT22;38340;52.964;6.086;2022-09-03T16:47:45;24.90;93.70
52415;DHT22;38340;52.964;6.086;2022-09-03T17:02:15;24.50;93.70
52415;DHT22;38340;52.964;6.086;2022-09-03T17:04:55;24.50;94.00
52415;DHT22;38340;52.964;6.086;2022-09-03T17:10:35;24.30;94.40
52415;DHT22;38340;52.964;6.086;2022-09-03T17:15:50;24.20;94.60
52415;DHT22;38340;52.964;6.086;2022-09-03T17:26:34;23.90;94.90
52415;DHT22;38340;52.964;6.086;2022-09-03T17:31:53;23.70;95.20
52415;DHT22;38340;52.964;6.086;2022-09-03T17:42:31;23.40;95.40
52415;DHT22;38340;52.964;6.086;2022-09-03T17:47:45;23.20;95.60
52415;DHT22;38340;52.964;6.086;2022-09-03T17:50:41;23.20;95.80
52415;DHT22;38340;52.964;6.086;2022-09-03T17:53:35;23.10;95.90
52415;DHT22;38340;52.964;6.086;2022-09-03T17:56:10;22.90;96.10
52415;DHT22;38340;52.964;6.086;2022-09-03T17:58:50;22.80;96.10
52415;DHT22;38340;52.964;6.086;2022-09-03T18:01:24;22.80;96.20
52415;DHT22;38340;52.964;6.086;2022-09-03T18:04:47;22.70;96.30
52415;DHT22;38340;52.964;6.086;2022-09-03T18:06:59;22.60;96.40
52415;DHT22;38340;52.964;6.086;2022-09-03T18:12:46;22.40;96.60
52415;DHT22;38340;52.964;6.086;2022-09-03T18:15:21;22.30;96.60
52415;DHT22;38340;52.964;6.086;2022-09-03T18:18:06;22.20;96.60
52415;DHT22;38340;52.964;6.086;2022-09-03T18:20:45;22.10;96.60
52415;DHT22;38340;52.964;6.086;2022-09-03T18:26:28;21.90;96.70
52415;DHT22;38340;52.964;6.086;2022-09-03T18:32:06;21.70;96.80
52415;DHT22;38340;52.964;6.086;2022-09-03T18:34:50;21.70;96.90
52415;DHT22;38340;52.964;6.086;2022-09-03T18:37:35;21.60;96.90
52415;DHT22;38340;52.964;6.086;2022-09-03T18:40:26;21.50;97.10
52415;DHT22;38340;52.964;6.086;2022-09-03T18:49:33;21.10;97.60
52415;DHT22;38340;52.964;6.086;2022-09-03T18:52:34;21.00;97.80
52415;DHT22;38340;52.964;6.086;2022-09-03T18:55:45;20.80;98.00
52415;DHT22;38340;52.964;6.086;2022-09-03T18:58:41;20.70;98.10
52415;DHT22;38340;52.964;6.086;2022-09-03T19:01:37;20.60;98.20
52415;DHT22;38340;52.964;6.086;2022-09-03T19:07:55;20.30;98.60
52415;DHT22;38340;52.964;6.086;2022-09-03T19:14:38;20.20;99.00
52415;DHT22;38340;52.964;6.086;2022-09-03T19:20:28;20.00;99.00
52415;DHT22;38340;52.964;6.086;2022-09-03T19:23:13;20.00;98.90
52415;DHT22;38340;52.964;6.086;2022-09-03T19:26:07;19.90;99.00
52415;DHT22;38340;52.964;6.086;2022-09-03T19:29:00;19.90;99.20
52415;DHT22;38340;52.964;6.086;2022-09-03T19:31:55;19.90;99.40
52415;DHT22;38340;52.964;6.086;2022-09-03T19:35:16;19.80;99.60
52415;DHT22;38340;52.964;6.086;2022-09-03T19:38:20;19.70;99.70
52415;DHT22;38340;52.964;6.086;2022-09-03T19:41:36;19.70;99.60
52415;DHT22;38340;52.964;6.086;2022-09-03T19:47:43;19.50;99.90
52415;DHT22;38340;52.964;6.086;2022-09-03T19:50:34;19.50;99.90
52415;DHT22;38340;52.964;6.086;2022-09-03T19:53:20;19.40;99.90
52415;DHT22;38340;52.964;6.086;2022-09-03T19:56:28;19.50;99.90
52415;DHT22;38340;52.964;6.086;2022-09-03T19:59:18;19.40;99.90
52415;DHT22;38340;52.964;6.086;2022-09-03T20:02:03;19.40;99.90
52415;DHT22;38340;52.964;6.086;2022-09-03T20:04:57;19.30;99.90
52415;DHT22;38340;52.964;6.086;2022-09-03T20:07:41;19.30;99.90
52415;DHT22;38340;52.964;6.086;2022-09-03T20:10:27;19.30;99.90
52415;DHT22;38340;52.964;6.086;2022-09-03T20:13:12;19.20;99.90
52415;DHT22;38340;52.964;6.086;2022-09-03T20:16:02;19.20;99.90
52415;DHT22;38340;52.964;6.086;2022-09-03T20:34:50;18.80;99.90
52415;DHT22;38340;52.964;6.086;2022-09-03T20:37:57;18.80;99.90
52415;DHT22;38340;52.964;6.086;2022-09-03T20:40:43;18.70;99.90
52415;DHT22;38340;52.964;6.086;2022-09-03T20:51:25;18.60;99.90
52415;DHT22;38340;52.964;6.086;2022-09-03T20:59:16;18.50;99.90
52415;DHT22;38340;52.964;6.086;2022-09-03T21:02:00;18.50;99.90
52415;DHT22;38340;52.964;6.086;2022-09-03T21:04:58;18.50;99.90
52415;DHT22;38340;52.964;6.086;2022-09-03T21:12:56;18.30;99.90
52415;DHT22;38340;52.964;6.086;2022-09-03T21:18:47;18.20;99.90
52415;DHT22;38340;52.964;6.086;2022-09-03T21:24:23;18.10;99.90
52415;DHT22;38340;52.964;6.086;2022-09-03T21:26:54;18.10;99.90
52415;DHT22;38340;52.964;6.086;2022-09-03T21:29:29;18.00;99.90
52415;DHT22;38340;52.964;6.086;2022-09-03T21:34:42;18.00;99.90
52415;DHT22;38340;52.964;6.086;2022-09-03T21:37:11;18.00;99.90
52415;DHT22;38340;52.964;6.086;2022-09-03T21:39:45;17.90;99.90
52415;DHT22;38340;52.964;6.086;2022-09-03T21:42:40;17.90;99.90
52415;DHT22;38340;52.964;6.086;2022-09-03T21:45:24;17.80;99.90
52415;DHT22;38340;52.964;6.086;2022-09-03T21:47:56;17.80;99.90
52415;DHT22;38340;52.964;6.086;2022-09-03T21:53:24;17.70;99.90
52415;DHT22;38340;52.964;6.086;2022-09-03T21:59:01;17.60;99.90
52415;DHT22;38340;52.964;6.086;2022-09-03T22:01:50;17.60;99.90
52415;DHT22;38340;52.964;6.086;2022-09-03T22:04:16;17.60;99.90
52415;DHT22;38340;52.964;6.086;2022-09-03T22:09:30;17.50;99.90
52415;DHT22;38340;52.964;6.086;2022-09-03T22:12:03;17.50;99.90
52415;DHT22;38340;52.964;6.086;2022-09-03T22:14:36;17.50;99.90
52415;DHT22;38340;52.964;6.086;2022-09-03T22:17:19;17.50;99.90
52415;DHT22;38340;52.964;6.086;2022-09-03T22:19:48;17.40;99.90
52415;DHT22;38340;52.964;6.086;2022-09-03T22:22:36;17.40;99.90
52415;DHT22;38340;52.964;6.086;2022-09-03T22:25:21;17.40;99.90